Salem Center, Indiana
Current Conditions -  °F | °C
As of 10:35 AM on Thursday 23 Oct 2014 (Local Time) from KANQ Reporting Station
Broken Clouds Broken Clouds  
Wind Chill: 39°   Ceiling: 100
Heat Index: 39°   Visibility: 1.5mi
Dew Point: 36°   Wind: 0mph
Humidity: 87%   Direction: NA
Pressure: 30.25"   Gusts: NA
Location:  41.5628°N, 85.1391°W
Report Text: KANQ 231435Z AUTO 00000KT 1 1/2SM BKN001 04/02 A3025 RMK
Loading
Personal Weather Stations






























Interactive Weather Map
Tropical Storm Tracking
New forecast layout! Learn more

10-Day Weather Forecast

Advertisements
Track Severe Weather on mobile